Pleasant Hill, Oregon
Current Conditions -  °F | °C
As of 1:54 PM on Friday 24 Oct 2014 (Local Time) from KEUG Reporting Station
Light Rain Light Rain  
Wind Chill: 52°   Ceiling: 700
Heat Index: 52°   Visibility: 2mi
Dew Point: 50°   Wind: 9mph
Humidity: 93%   Direction: 20°NNE
Pressure: 29.87"   Gusts: NA
Location:  43.97°N, 122.93°W
Report Text: KEUG 242054Z 02008KT 2SM -RA BR OVC007 11/10 A2987 RMK AO2 SLP116 P0011 60017 T01110100 58020
Loading
Personal Weather Stations






























Interactive Weather Map
Tropical Storm Tracking
New forecast layout! Learn more

10-Day Weather Forecast

Advertisements
Track Severe Weather on mobile